createdAt,value
2023-11-10T00:00:12.160Z,93.66
2023-11-10T00:02:40.922Z,93.79
2023-11-10T00:05:08.437Z,94.32
2023-11-10T00:07:35.872Z,94.65
2023-11-10T00:10:04.391Z,94.98
2023-11-10T00:12:31.270Z,95.15
2023-11-10T00:15:00.632Z,95.19
2023-11-10T00:17:27.412Z,95.18
2023-11-10T00:19:54.250Z,95.40
2023-11-10T00:22:21.118Z,95.40
2023-11-10T00:24:48.135Z,95.56
2023-11-10T00:27:16.419Z,95.65
2023-11-10T00:29:46.841Z,95.83
2023-11-10T00:32:14.303Z,95.88
2023-11-10T00:34:42.272Z,95.73
2023-11-10T00:37:09.198Z,96.02
2023-11-10T00:39:36.215Z,96.06
2023-11-10T00:42:03.712Z,95.90
2023-11-10T00:44:30.523Z,96.10
2023-11-10T00:46:57.375Z,96.26
2023-11-10T00:49:24.134Z,96.13
2023-11-10T00:51:50.878Z,96.22
2023-11-10T00:54:18.022Z,95.95
2023-11-10T00:56:45.711Z,95.99
2023-11-10T01:01:40.935Z,95.67
2023-11-10T01:04:09.570Z,95.56
2023-11-10T01:06:37.002Z,95.53
2023-11-10T01:09:03.940Z,95.51
2023-11-10T01:11:30.787Z,95.33
2023-11-10T01:13:57.609Z,95.34
2023-11-10T01:16:25.618Z,95.26
2023-11-10T01:18:52.684Z,95.03
2023-11-10T01:21:20.349Z,94.93
2023-11-10T01:23:47.453Z,95.07
2023-11-10T01:26:14.543Z,95.07
2023-11-10T01:28:41.766Z,94.80
2023-11-10T01:31:10.410Z,94.70
2023-11-10T01:33:37.873Z,94.57
2023-11-10T01:36:05.313Z,94.59
2023-11-10T01:38:32.160Z,94.55
2023-11-10T01:40:58.879Z,94.50
2023-11-10T01:43:25.696Z,94.54
2023-11-10T01:45:52.764Z,94.62
2023-11-10T01:48:21.196Z,94.59
2023-11-10T01:50:48.161Z,94.37
2023-11-10T01:53:15.366Z,94.35
2023-11-10T01:55:44.892Z,94.54
2023-11-10T01:58:13.332Z,94.45
2023-11-10T02:00:40.644Z,94.52
2023-11-10T02:03:09.346Z,94.94
2023-11-10T02:05:36.842Z,94.91
2023-11-10T02:08:05.100Z,95.14
2023-11-10T02:10:32.828Z,95.43
2023-11-10T02:13:00.845Z,95.48
2023-11-10T02:15:29.635Z,95.73
2023-11-10T02:17:57.009Z,95.86
2023-11-10T02:20:24.670Z,95.95
2023-11-10T02:22:52.488Z,96.17
2023-11-10T02:25:21.246Z,96.44
2023-11-10T02:27:48.823Z,96.47
2023-11-10T02:30:16.105Z,96.69
2023-11-10T02:32:44.982Z,96.41
2023-11-10T02:35:12.363Z,96.37
2023-11-10T02:37:39.312Z,96.26
2023-11-10T02:40:07.670Z,95.68
2023-11-10T02:42:35.374Z,95.30
2023-11-10T02:45:02.734Z,95.13
2023-11-10T02:47:29.780Z,95.04
2023-11-10T02:49:56.824Z,95.14
2023-11-10T02:52:23.713Z,94.96
2023-11-10T02:54:50.455Z,94.70
2023-11-10T02:57:17.397Z,95.07
2023-11-10T02:59:44.340Z,95.27
2023-11-10T03:02:12.709Z,95.49
2023-11-10T03:04:42.385Z,95.22
2023-11-10T03:07:09.246Z,95.14
2023-11-10T03:09:36.182Z,95.59
2023-11-10T03:12:03.205Z,95.30
2023-11-10T03:14:30.374Z,95.61
2023-11-10T03:16:57.093Z,95.90
2023-11-10T03:19:23.961Z,95.98
2023-11-10T03:21:50.785Z,95.87
2023-11-10T03:24:17.957Z,95.88
2023-11-10T03:26:44.801Z,95.88
2023-11-10T03:29:11.603Z,95.86
2023-11-10T03:31:39.658Z,95.95
2023-11-10T03:34:06.517Z,95.71
2023-11-10T03:36:33.417Z,95.39
2023-11-10T03:39:00.583Z,95.65
2023-11-10T03:41:27.330Z,95.90
2023-11-10T03:43:54.316Z,95.73
2023-11-10T03:46:21.307Z,95.52
2023-11-10T03:48:48.106Z,95.47
2023-11-10T03:51:15.189Z,95.53
2023-11-10T03:53:43.273Z,95.57
2023-11-10T03:56:10.307Z,95.43
2023-11-10T03:58:37.079Z,95.40
2023-11-10T04:01:08.805Z,95.48
2023-11-10T04:03:35.981Z,95.49
2023-11-10T04:06:02.889Z,95.55
2023-11-10T04:08:29.714Z,95.53
2023-11-10T04:10:56.503Z,95.38
2023-11-10T04:13:23.399Z,95.60
2023-11-10T04:15:50.532Z,95.27
2023-11-10T04:18:22.655Z,94.91
2023-11-10T04:20:49.654Z,94.51
2023-11-10T04:23:17.019Z,94.01
2023-11-10T04:25:43.972Z,94.20
2023-11-10T04:28:13.505Z,94.36
2023-11-10T04:30:40.935Z,94.35
2023-11-10T04:33:08.024Z,94.23
2023-11-10T04:35:34.998Z,93.78
2023-11-10T04:38:02.445Z,93.93
2023-11-10T04:40:29.530Z,93.82
2023-11-10T04:42:59.470Z,93.37
2023-11-10T04:45:28.353Z,93.13
2023-11-10T04:48:25.686Z,92.70
2023-11-10T04:50:52.480Z,92.11
2023-11-10T04:53:19.302Z,92.13
2023-11-10T04:55:46.149Z,90.84
2023-11-10T04:58:12.927Z,90.46
2023-11-10T05:00:39.802Z,89.97
2023-11-10T05:03:07.654Z,89.63
2023-11-10T05:05:37.826Z,89.29
2023-11-10T05:08:05.093Z,89.35
2023-11-10T05:10:32.554Z,88.92
2023-11-10T05:12:59.328Z,88.87
2023-11-10T05:15:26.228Z,88.94
2023-11-10T05:17:53.046Z,89.08
2023-11-10T05:20:20.107Z,89.43
2023-11-10T05:22:46.934Z,89.57
2023-11-10T05:25:14.085Z,89.78
2023-11-10T05:27:41.588Z,89.83
2023-11-10T05:30:10.379Z,89.97
2023-11-10T05:32:37.993Z,90.66
2023-11-10T05:35:05.547Z,90.85
2023-11-10T05:37:33.001Z,90.88
2023-11-10T05:40:01.002Z,90.83
2023-11-10T05:42:27.823Z,90.48
2023-11-10T05:44:54.722Z,90.08
2023-11-10T05:47:21.713Z,90.50
2023-11-10T05:49:48.475Z,90.19
2023-11-10T05:52:15.521Z,89.15
2023-11-10T05:54:42.471Z,88.87
2023-11-10T05:57:09.504Z,89.44
2023-11-10T05:59:36.591Z,89.80
2023-11-10T06:02:04.373Z,90.17
2023-11-10T06:04:35.289Z,90.32
2023-11-10T06:07:03.595Z,90.24
2023-11-10T06:09:32.369Z,90.52
2023-11-10T06:11:59.733Z,90.00
2023-11-10T06:14:26.790Z,88.91
2023-11-10T06:16:53.819Z,89.46
2023-11-10T06:19:20.758Z,89.66
2023-11-10T06:21:47.604Z,89.63
2023-11-10T06:24:15.408Z,89.36
2023-11-10T06:26:42.222Z,89.38
2023-11-10T06:29:09.370Z,89.15
2023-11-10T06:31:36.335Z,89.61
2023-11-10T06:34:03.737Z,88.57
2023-11-10T06:36:30.753Z,88.13
2023-11-10T06:38:57.629Z,88.54
2023-11-10T06:41:25.462Z,88.89
2023-11-10T06:43:52.582Z,89.12
2023-11-10T06:46:22.129Z,89.52
2023-11-10T06:48:49.226Z,89.45
2023-11-10T06:51:16.573Z,89.52
2023-11-10T06:53:47.809Z,89.47
2023-11-10T06:56:15.616Z,88.65
2023-11-10T06:58:42.378Z,88.48
2023-11-10T07:01:10.174Z,89.08
2023-11-10T07:03:38.630Z,88.36
2023-11-10T07:06:08.329Z,88.15
2023-11-10T07:08:36.085Z,88.43
2023-11-10T07:11:04.174Z,88.56
2023-11-10T07:13:31.726Z,88.28
2023-11-10T07:16:00.457Z,88.41
2023-11-10T07:18:28.439Z,87.95
2023-11-10T07:20:56.140Z,87.40
2023-11-10T07:23:23.408Z,87.93
2023-11-10T07:25:53.978Z,88.19
2023-11-10T07:28:23.432Z,87.70
2023-11-10T07:37:12.913Z,87.19
2023-11-10T07:46:43.044Z,86.66
2023-11-10T19:01:30.818Z,95.20
2023-11-10T19:04:01.224Z,95.13
2023-11-10T19:09:13.002Z,94.77
2023-11-10T19:14:20.378Z,94.51
2023-11-10T19:19:34.100Z,94.31
2023-11-10T19:22:11.404Z,94.73
2023-11-10T19:27:29.026Z,95.10
2023-11-10T19:29:55.768Z,95.30
2023-11-10T19:35:03.702Z,95.09
2023-11-10T19:40:11.244Z,95.08
2023-11-10T19:45:19.028Z,95.49
2023-11-10T19:47:48.208Z,95.31
2023-11-10T19:50:17.479Z,95.40
2023-11-10T19:52:46.537Z,95.51
2023-11-10T19:55:15.829Z,95.92
2023-11-10T19:57:44.751Z,95.94
2023-11-10T20:02:49.223Z,96.01
2023-11-10T20:05:17.353Z,96.15
2023-11-10T20:07:44.065Z,96.10
2023-11-10T20:10:11.056Z,95.99
2023-11-10T20:12:37.821Z,96.13
2023-11-10T20:17:48.581Z,95.90
2023-11-10T20:22:58.512Z,95.72
2023-11-10T20:28:06.618Z,95.59
2023-11-10T20:33:13.854Z,95.57
2023-11-10T20:35:43.206Z,95.58
2023-11-10T20:38:11.674Z,95.59
2023-11-10T20:40:40.507Z,95.44
2023-11-10T20:43:08.988Z,95.61
2023-11-10T20:48:17.657Z,95.50
2023-11-10T20:50:49.534Z,95.64
2023-11-10T20:53:18.714Z,95.61
2023-11-10T20:55:47.716Z,95.76
2023-11-10T20:58:22.589Z,95.77
2023-11-10T21:00:49.233Z,95.67
2023-11-10T21:03:17.722Z,95.65
2023-11-10T21:05:48.275Z,95.73
2023-11-10T21:08:16.553Z,95.44
2023-11-10T21:10:43.798Z,95.61
2023-11-10T21:15:53.006Z,95.99
2023-11-10T21:18:52.281Z,96.01
2023-11-10T21:21:33.199Z,96.23
2023-11-10T21:24:00.056Z,96.17
2023-11-10T21:29:08.906Z,96.12
2023-11-10T21:34:18.421Z,96.11
2023-11-10T21:39:27.804Z,96.19
2023-11-10T21:44:36.039Z,96.25
2023-11-10T21:47:03.930Z,96.24
2023-11-10T21:52:11.624Z,96.48
2023-11-10T21:57:20.567Z,96.44
2023-11-10T22:02:29.046Z,96.54
2023-11-10T22:07:39.681Z,96.65
2023-11-10T22:12:53.307Z,96.94
2023-11-10T22:18:00.795Z,97.30
2023-11-10T22:23:09.790Z,97.36
2023-11-10T22:25:36.669Z,97.18
2023-11-10T22:28:10.903Z,97.00
2023-11-10T22:30:37.859Z,97.33
2023-11-10T22:33:04.710Z,97.50
2023-11-10T22:35:37.956Z,97.54
2023-11-10T22:38:04.709Z,97.68
2023-11-10T22:40:31.530Z,97.73
2023-11-10T22:45:41.908Z,97.54
2023-11-10T22:48:16.264Z,97.06
2023-11-10T22:50:43.985Z,96.69
2023-11-10T22:53:10.598Z,96.17
2023-11-10T22:55:43.419Z,95.89
2023-11-10T22:58:10.150Z,95.15
2023-11-10T23:03:25.922Z,95.43
2023-11-10T23:08:36.344Z,95.84
2023-11-10T23:13:43.591Z,96.33
2023-11-10T23:16:10.589Z,96.61
2023-11-10T23:18:40.349Z,96.61
2023-11-10T23:21:07.514Z,96.53
2023-11-10T23:23:34.500Z,96.67
2023-11-10T23:26:01.127Z,96.67
2023-11-10T23:28:30.371Z,96.66
2023-11-10T23:30:57.040Z,96.62
2023-11-10T23:33:23.720Z,96.51
2023-11-10T23:35:59.211Z,96.52
2023-11-10T23:38:29.737Z,96.63
2023-11-10T23:40:58.017Z,96.83
2023-11-10T23:43:25.304Z,97.00
2023-11-10T23:45:53.289Z,97.07
2023-11-10T23:48:20.172Z,97.05
2023-11-10T23:50:48.010Z,96.97
2023-11-10T23:53:19.092Z,97.05
2023-11-10T23:55:45.941Z,97.11
2023-11-10T23:58:12.679Z,97.09
